createdAt,value
2022-08-01T00:02:00.552Z,79.09
2022-08-01T00:04:50.349Z,78.27
2022-08-01T00:07:40.748Z,78.20
2022-08-01T00:10:30.731Z,77.83
2022-08-01T00:13:20.889Z,77.27
2022-08-01T00:16:10.688Z,77.50
2022-08-01T00:19:01.752Z,77.51
2022-08-01T00:21:52.571Z,77.49
2022-08-01T00:24:45.050Z,77.37
2022-08-01T00:27:37.767Z,77.46
2022-08-01T00:30:27.737Z,76.75
2022-08-01T00:33:17.642Z,76.84
2022-08-01T00:36:08.171Z,77.17
2022-08-01T00:39:00.553Z,77.20
2022-08-01T00:41:51.008Z,77.25
2022-08-01T00:44:50.107Z,76.98
2022-08-01T00:47:40.275Z,76.43
2022-08-01T00:50:30.624Z,75.88
2022-08-01T00:53:19.857Z,75.26
2022-08-01T00:56:11.770Z,75.40
2022-08-01T00:59:01.675Z,74.52
2022-08-01T01:01:52.646Z,74.81
2022-08-01T01:04:43.271Z,73.78
2022-08-01T01:07:57.433Z,71.83
2022-08-01T01:10:59.023Z,72.25
2022-08-01T01:14:05.200Z,70.99
2022-08-01T01:16:55.815Z,71.35
2022-08-01T01:19:51.058Z,70.95
2022-08-01T01:22:56.220Z,70.53
2022-08-01T01:26:23.831Z,69.98
2022-08-01T01:29:59.874Z,70.03
2022-08-01T01:32:51.883Z,68.77
2022-08-01T01:35:52.356Z,67.77
2022-08-01T01:38:47.390Z,67.18
2022-08-01T01:41:40.411Z,67.45
2022-08-01T01:44:30.784Z,66.91
2022-08-01T01:47:21.240Z,66.72
2022-08-01T01:50:12.371Z,67.50
2022-08-01T01:53:02.992Z,67.05
2022-08-01T01:55:57.058Z,66.62
2022-08-01T01:58:47.428Z,66.80
2022-08-01T02:01:57.935Z,65.81
2022-08-01T02:04:49.953Z,65.46
2022-08-01T02:07:42.262Z,66.59
2022-08-01T02:10:35.184Z,66.19
2022-08-01T02:13:25.972Z,66.87
2022-08-01T02:16:16.694Z,66.11
2022-08-01T02:19:06.876Z,65.42
2022-08-01T02:22:20.306Z,64.48
2022-08-01T02:25:19.017Z,65.31
2022-08-01T02:28:12.284Z,65.30
2022-08-01T02:31:07.671Z,65.41
2022-08-01T02:34:05.092Z,65.06
2022-08-01T02:36:55.296Z,63.60
2022-08-01T02:39:45.618Z,63.17
2022-08-01T02:42:41.537Z,63.03
2022-08-01T02:45:32.306Z,61.25
2022-08-01T02:48:22.441Z,60.92
2022-08-01T02:51:14.230Z,60.19
2022-08-01T02:54:07.073Z,60.51
2022-08-01T02:57:01.345Z,59.25
2022-08-01T02:59:53.258Z,59.07
2022-08-01T03:02:47.926Z,58.60
2022-08-01T03:05:38.593Z,59.38
2022-08-01T03:08:28.529Z,59.85
2022-08-01T03:11:18.542Z,58.98
2022-08-01T03:14:11.177Z,60.33
2022-08-01T03:17:01.146Z,58.77
2022-08-01T03:19:51.951Z,59.17
2022-08-01T03:22:42.765Z,59.09
2022-08-01T03:25:34.735Z,59.31
2022-08-01T03:28:29.576Z,59.58
2022-08-01T03:31:20.749Z,59.65
2022-08-01T03:34:10.948Z,60.16
2022-08-01T03:37:30.706Z,59.84
2022-08-01T03:40:31.341Z,61.20
2022-08-01T03:43:30.479Z,62.20
2022-08-01T03:46:25.313Z,62.30
2022-08-01T03:49:21.243Z,63.12
2022-08-01T03:52:11.740Z,62.55
2022-08-01T03:55:07.493Z,62.13
2022-08-01T03:57:57.632Z,62.22
2022-08-01T04:00:47.406Z,61.22
2022-08-01T04:03:41.852Z,60.93
2022-08-01T04:06:32.865Z,60.91
2022-08-01T04:09:24.121Z,61.66
2022-08-01T04:12:13.901Z,61.46
2022-08-01T04:15:04.384Z,60.73
2022-08-01T04:17:56.455Z,61.14
2022-08-01T04:20:45.887Z,61.28
2022-08-01T04:23:40.689Z,60.61
2022-08-01T04:26:33.129Z,59.70
2022-08-01T04:29:24.201Z,59.89
2022-08-01T04:32:15.977Z,58.71
2022-08-01T04:35:23.372Z,60.50
2022-08-01T04:38:25.625Z,58.80
2022-08-01T04:41:17.490Z,58.12
2022-08-01T04:44:09.269Z,57.97
2022-08-01T04:46:59.345Z,57.61
2022-08-01T04:49:49.541Z,57.86
2022-08-01T04:52:40.756Z,57.42
2022-08-01T04:55:30.383Z,55.12
2022-08-01T04:58:20.444Z,56.55
2022-08-01T05:01:10.909Z,55.23
2022-08-01T05:04:01.050Z,55.79
2022-08-01T05:06:51.442Z,55.18
2022-08-01T05:09:48.562Z,56.62
2022-08-01T05:12:38.785Z,56.56
2022-08-01T05:15:29.412Z,55.89
2022-08-01T05:18:18.990Z,54.83
2022-08-01T05:21:19.657Z,55.35
2022-08-01T05:24:09.518Z,56.10
2022-08-01T05:27:00.252Z,55.84
2022-08-01T05:29:50.538Z,55.25
2022-08-01T05:32:40.767Z,55.21
2022-08-01T05:35:48.758Z,54.81
2022-08-01T05:38:40.209Z,55.10
2022-08-01T05:41:29.726Z,55.08
2022-08-01T05:44:19.996Z,54.21
2022-08-01T05:47:09.446Z,54.73
2022-08-01T05:49:59.662Z,54.60
2022-08-01T05:52:49.103Z,55.53
2022-08-01T05:55:39.594Z,54.98
2022-08-01T05:58:31.214Z,55.11
2022-08-01T06:01:21.328Z,55.90
2022-08-01T06:04:11.527Z,55.57
2022-08-01T06:07:01.331Z,55.19
2022-08-01T06:09:51.050Z,54.42
2022-08-01T06:12:41.136Z,54.51
2022-08-01T06:15:32.054Z,53.68
2022-08-01T06:18:22.644Z,53.21
2022-08-01T06:21:12.904Z,54.12
2022-08-01T06:24:03.306Z,53.85
2022-08-01T06:26:53.055Z,53.78
2022-08-01T06:29:51.264Z,53.68
2022-08-01T06:32:44.846Z,53.93
2022-08-01T06:35:34.796Z,54.17
2022-08-01T06:38:25.157Z,53.41
2022-08-01T06:41:16.121Z,53.80
2022-08-01T06:44:06.725Z,53.29
2022-08-01T06:46:57.836Z,54.00
2022-08-01T06:49:47.668Z,54.74
2022-08-01T06:52:38.298Z,54.17
2022-08-01T06:55:27.792Z,54.32
2022-08-01T06:58:20.367Z,55.18
2022-08-01T07:01:23.816Z,56.47
2022-08-01T07:04:16.084Z,56.01
2022-08-01T07:07:06.600Z,55.22
2022-08-01T07:09:56.448Z,55.85
2022-08-01T07:12:47.041Z,55.49
2022-08-01T07:15:36.879Z,55.87
2022-08-01T07:18:26.682Z,55.67
2022-08-01T07:21:39.286Z,55.36
2022-08-01T07:24:26.982Z,55.57
2022-08-01T07:27:25.636Z,56.57
2022-08-01T07:30:16.711Z,56.42
2022-08-01T07:33:06.812Z,56.83
2022-08-01T07:35:56.276Z,57.45
2022-08-01T07:38:47.984Z,57.44
2022-08-01T07:42:05.575Z,57.02
2022-08-01T07:44:48.366Z,57.49
2022-08-01T07:47:38.184Z,57.66
2022-08-01T07:50:27.782Z,56.63
2022-08-01T07:53:20.344Z,57.04
2022-08-01T07:56:09.936Z,57.56
2022-08-01T07:58:59.621Z,57.14
2022-08-01T08:01:49.281Z,57.39
2022-08-01T08:04:39.236Z,58.20
2022-08-01T08:07:29.210Z,58.28
2022-08-01T08:10:19.370Z,58.23
2022-08-01T08:13:12.358Z,58.52
2022-08-01T08:16:06.004Z,59.19
2022-08-01T08:18:55.716Z,59.40
2022-08-01T08:21:48.091Z,58.82
2022-08-01T08:24:45.665Z,59.58
2022-08-01T08:27:37.533Z,59.84
2022-08-01T08:30:27.575Z,60.06
2022-08-01T08:33:16.558Z,60.04
2022-08-01T08:36:07.430Z,60.36
2022-08-01T08:38:57.465Z,59.77
2022-08-01T08:41:49.515Z,60.08
2022-08-01T08:44:43.705Z,60.51
2022-08-01T08:47:36.400Z,60.16
2022-08-01T08:50:28.094Z,60.55
2022-08-01T08:53:18.770Z,60.93
2022-08-01T08:56:10.036Z,59.88
2022-08-01T08:59:02.556Z,60.32
2022-08-01T09:01:53.492Z,60.42
2022-08-01T09:04:44.267Z,60.46
2022-08-01T09:07:33.943Z,61.01
2022-08-01T09:10:23.508Z,60.90
2022-08-01T09:13:17.088Z,60.74
2022-08-01T09:16:08.931Z,61.38
2022-08-01T09:19:16.009Z,61.42
2022-08-01T09:22:26.629Z,61.48
2022-08-01T09:25:16.224Z,62.09
2022-08-01T09:28:09.232Z,61.82
2022-08-01T09:31:02.456Z,61.68
2022-08-01T09:33:57.487Z,61.38
2022-08-01T09:37:00.763Z,60.97
2022-08-01T09:40:00.205Z,61.07
2022-08-01T09:42:54.141Z,61.25
2022-08-01T09:45:45.793Z,60.98
2022-08-01T09:48:41.938Z,61.79
2022-08-01T09:52:00.192Z,61.55
2022-08-01T09:55:00.677Z,62.23
2022-08-01T09:58:00.520Z,62.16
2022-08-01T10:01:02.796Z,62.13
2022-08-01T10:04:15.490Z,62.08
2022-08-01T10:07:09.242Z,62.85
2022-08-01T10:09:59.253Z,62.52
2022-08-01T10:12:51.457Z,62.44
2022-08-01T10:15:42.357Z,62.88
2022-08-01T10:18:35.606Z,62.71
2022-08-01T10:21:57.230Z,62.84
2022-08-01T10:24:41.478Z,63.70
2022-08-01T10:27:37.907Z,64.04
2022-08-01T10:30:29.133Z,63.53
2022-08-01T10:33:50.794Z,63.29
2022-08-01T10:36:31.079Z,62.66
2022-08-01T10:39:23.011Z,63.60
2022-08-01T10:42:15.559Z,63.51
2022-08-01T10:45:06.164Z,63.24
2022-08-01T10:48:08.102Z,62.84
2022-08-01T10:51:03.767Z,63.12
2022-08-01T10:53:57.345Z,63.24
2022-08-01T10:56:53.250Z,63.56
2022-08-01T10:59:59.443Z,63.04
2022-08-01T11:03:05.764Z,62.74
2022-08-01T11:05:55.744Z,63.76
2022-08-01T11:08:54.278Z,63.52
2022-08-01T11:12:03.034Z,62.59
2022-08-01T11:15:03.145Z,62.88
2022-08-01T11:17:55.094Z,64.87
2022-08-01T11:21:58.631Z,63.37
2022-08-01T11:24:11.247Z,64.15
2022-08-01T11:27:24.353Z,62.78
2022-08-01T11:30:14.126Z,64.72
2022-08-01T11:33:11.213Z,63.39
2022-08-01T11:36:18.242Z,63.30
2022-08-01T11:39:13.175Z,64.41
2022-08-01T11:42:22.891Z,63.33
2022-08-01T11:45:18.085Z,63.47
2022-08-01T11:48:22.056Z,63.35
2022-08-01T11:51:25.383Z,63.42
2022-08-01T11:54:15.496Z,62.28
2022-08-01T11:57:34.060Z,62.71
2022-08-01T12:00:25.925Z,62.45
2022-08-01T12:03:19.151Z,62.97
2022-08-01T12:06:31.000Z,64.74
2022-08-01T12:09:23.368Z,63.17
2022-08-01T12:12:13.664Z,63.21
2022-08-01T12:15:09.969Z,63.51
2022-08-01T12:18:01.786Z,63.90
2022-08-01T12:20:56.950Z,63.45
2022-08-01T12:23:47.090Z,62.75
2022-08-01T12:26:46.437Z,63.92
2022-08-01T12:29:40.459Z,62.94
2022-08-01T12:32:38.877Z,64.45
2022-08-01T12:35:29.933Z,63.46
2022-08-01T12:38:21.558Z,63.70
2022-08-01T12:41:14.124Z,63.96
2022-08-01T12:44:04.396Z,63.59
2022-08-01T12:46:56.522Z,63.71
2022-08-01T12:49:46.924Z,64.29
2022-08-01T12:52:36.965Z,64.29
2022-08-01T12:55:34.166Z,63.01
2022-08-01T12:58:25.005Z,62.61
2022-08-01T13:01:16.054Z,62.20
2022-08-01T13:04:06.834Z,62.18
2022-08-01T13:06:57.218Z,61.95
2022-08-01T13:09:55.833Z,62.64
2022-08-01T13:12:55.357Z,64.39
2022-08-01T13:15:46.916Z,61.56
2022-08-01T13:18:38.111Z,61.67
2022-08-01T13:21:52.945Z,63.53
2022-08-01T13:24:42.293Z,62.83
2022-08-01T13:27:32.393Z,62.21
2022-08-01T13:30:25.243Z,63.32
2022-08-01T13:33:14.997Z,62.87
2022-08-01T13:36:07.950Z,63.53
2022-08-01T13:39:17.098Z,63.46
2022-08-01T13:42:07.255Z,64.04
2022-08-01T13:44:57.421Z,63.72
2022-08-01T13:48:12.043Z,63.85
2022-08-01T13:51:13.492Z,63.56
2022-08-01T13:54:08.038Z,64.31
2022-08-01T13:56:58.097Z,64.73
2022-08-01T13:59:47.289Z,64.52
2022-08-01T14:02:37.511Z,65.18
2022-08-01T14:05:27.259Z,65.13
2022-08-01T14:08:18.005Z,65.50
2022-08-01T14:11:08.415Z,65.60
2022-08-01T14:13:58.552Z,65.65
2022-08-01T14:16:48.468Z,65.14
2022-08-01T14:19:41.223Z,66.21
2022-08-01T14:22:33.141Z,66.81
2022-08-01T14:26:00.634Z,69.76
2022-08-01T14:28:35.670Z,75.18
2022-08-01T14:31:25.246Z,80.86
2022-08-01T14:34:15.567Z,83.58
2022-08-01T14:37:04.952Z,86.34
2022-08-01T14:39:54.777Z,87.86
2022-08-01T14:42:46.482Z,88.06
2022-08-01T14:45:37.101Z,88.80
2022-08-01T14:48:27.247Z,90.95
2022-08-01T14:51:16.659Z,92.75
2022-08-01T14:54:07.246Z,92.74
2022-08-01T14:56:59.558Z,93.14
2022-08-01T14:59:49.759Z,93.78
2022-08-01T15:02:39.995Z,93.75
2022-08-01T15:05:31.193Z,93.42
2022-08-01T15:08:20.943Z,94.28
2022-08-01T15:11:11.020Z,93.74
2022-08-01T15:14:18.951Z,94.55
2022-08-01T15:17:12.909Z,94.20
2022-08-01T15:20:07.036Z,93.79
2022-08-01T15:23:18.290Z,93.84
2022-08-01T15:26:15.953Z,93.72
2022-08-01T15:29:06.054Z,93.89
2022-08-01T15:31:56.013Z,93.85
2022-08-01T15:34:46.563Z,93.34
2022-08-01T15:37:40.887Z,93.22
2022-08-01T15:40:36.517Z,92.59
2022-08-01T15:43:32.354Z,92.93
2022-08-01T15:46:22.527Z,92.13
2022-08-01T15:49:13.039Z,91.90
2022-08-01T15:52:02.783Z,91.82
2022-08-01T15:54:52.398Z,91.60
2022-08-01T15:57:41.965Z,91.46
2022-08-01T16:00:34.752Z,91.13
2022-08-01T16:03:30.189Z,90.90
2022-08-01T16:06:20.018Z,91.12
2022-08-01T16:09:09.264Z,90.86
2022-08-01T16:12:11.268Z,91.45
2022-08-01T16:15:01.502Z,91.86
2022-08-01T16:17:51.410Z,92.06
2022-08-01T16:20:45.521Z,91.61
2022-08-01T16:23:35.684Z,92.28
2022-08-01T16:26:27.423Z,92.05
2022-08-01T16:29:17.528Z,91.71
2022-08-01T16:32:13.012Z,91.53
2022-08-01T16:35:06.103Z,92.12
2022-08-01T16:38:29.822Z,91.78
2022-08-01T16:41:20.734Z,91.65
2022-08-01T16:44:10.675Z,91.24
2022-08-01T16:47:00.584Z,92.11
2022-08-01T16:49:50.553Z,91.64
2022-08-01T16:52:41.886Z,91.39
2022-08-01T16:55:50.652Z,91.60
2022-08-01T16:58:43.342Z,91.77
2022-08-01T17:02:01.593Z,91.82
2022-08-01T17:04:44.362Z,90.90
2022-08-01T17:07:46.495Z,90.78
2022-08-01T17:10:38.226Z,91.24
2022-08-01T17:13:27.959Z,90.97
2022-08-01T17:16:17.463Z,90.77
2022-08-01T17:19:07.115Z,90.75
2022-08-01T17:21:56.403Z,90.47
2022-08-01T17:24:46.930Z,90.97
2022-08-01T17:27:37.559Z,91.50
2022-08-01T17:30:28.784Z,91.07
2022-08-01T17:33:18.379Z,90.59
2022-08-01T17:36:10.683Z,91.20
2022-08-01T17:39:04.216Z,90.32
2022-08-01T17:41:54.082Z,90.83
2022-08-01T17:44:48.746Z,91.12
2022-08-01T17:47:50.800Z,90.59
2022-08-01T17:50:41.163Z,90.56
2022-08-01T17:53:30.960Z,90.30
2022-08-01T17:56:20.770Z,90.89
2022-08-01T17:59:10.368Z,90.03
2022-08-01T18:02:00.512Z,90.24
2022-08-01T18:04:53.621Z,90.07
2022-08-01T18:08:01.086Z,89.49
2022-08-01T18:10:53.886Z,89.48
2022-08-01T18:13:43.526Z,89.13
2022-08-01T18:16:33.470Z,89.01
2022-08-01T18:19:23.032Z,88.99
2022-08-01T18:22:31.369Z,89.32
2022-08-01T18:25:25.003Z,89.27
2022-08-01T18:28:18.976Z,88.86
2022-08-01T18:31:22.030Z,89.00
2022-08-01T18:34:11.888Z,88.82
2022-08-01T18:37:08.017Z,88.80
2022-08-01T18:39:57.935Z,88.73
2022-08-01T18:42:47.710Z,88.73
2022-08-01T18:45:42.551Z,88.49
2022-08-01T18:48:32.816Z,88.33
2022-08-01T18:51:25.065Z,88.14
2022-08-01T18:54:15.958Z,88.14
2022-08-01T18:57:15.764Z,87.93
2022-08-01T19:00:13.544Z,87.82
2022-08-01T19:03:02.937Z,87.60
2022-08-01T19:05:52.799Z,87.87
2022-08-01T19:08:43.403Z,87.67
2022-08-01T19:11:34.148Z,87.30
2022-08-01T19:14:23.572Z,87.97
2022-08-01T19:17:16.006Z,88.32
2022-08-01T19:20:08.317Z,88.18
2022-08-01T19:22:58.331Z,88.16
2022-08-01T19:25:55.419Z,87.79
2022-08-01T19:28:48.162Z,87.73
2022-08-01T19:31:46.884Z,87.10
2022-08-01T19:34:45.614Z,87.25
2022-08-01T19:37:38.294Z,86.84
2022-08-01T19:40:28.460Z,86.77
2022-08-01T19:43:19.073Z,87.24
2022-08-01T19:46:17.349Z,87.26
2022-08-01T19:49:07.761Z,87.36
2022-08-01T19:52:03.062Z,87.43
2022-08-01T19:54:56.658Z,87.49
2022-08-01T19:57:59.391Z,87.79
2022-08-01T20:00:58.280Z,88.25
2022-08-01T20:03:52.529Z,88.00
2022-08-01T20:06:49.019Z,88.04
2022-08-01T20:09:38.748Z,87.58
2022-08-01T20:12:30.441Z,87.54
2022-08-01T20:15:19.715Z,87.18
2022-08-01T20:18:08.899Z,87.53
2022-08-01T20:20:58.481Z,87.28
2022-08-01T20:23:50.850Z,87.13
2022-08-01T20:26:42.940Z,86.99
2022-08-01T20:29:33.779Z,87.13
2022-08-01T20:32:22.910Z,87.29
2022-08-01T20:35:13.242Z,87.84
2022-08-01T20:38:07.068Z,87.62
2022-08-01T20:41:03.632Z,87.43
2022-08-01T20:43:55.675Z,87.75
2022-08-01T20:46:48.712Z,87.45
2022-08-01T20:49:41.352Z,87.70
2022-08-01T20:52:30.937Z,87.89
2022-08-01T20:55:21.095Z,87.74
2022-08-01T20:58:12.001Z,87.81
2022-08-01T21:01:09.219Z,87.92
2022-08-01T21:04:16.490Z,87.54
2022-08-01T21:07:09.204Z,88.18
2022-08-01T21:10:13.218Z,87.51
2022-08-01T21:13:12.058Z,87.45
2022-08-01T21:16:24.441Z,87.67
2022-08-01T21:19:22.349Z,87.16
2022-08-01T21:22:27.162Z,86.32
2022-08-01T21:25:20.375Z,87.12
2022-08-01T21:28:09.821Z,87.02
2022-08-01T21:31:00.518Z,86.54
2022-08-01T21:34:02.305Z,87.18
2022-08-01T21:36:54.429Z,86.83
2022-08-01T21:39:46.407Z,86.66
2022-08-01T21:42:41.556Z,86.31
2022-08-01T21:45:32.405Z,86.60
2022-08-01T21:48:27.001Z,86.59
2022-08-01T21:51:41.684Z,86.19
2022-08-01T21:54:40.613Z,86.33
2022-08-01T21:57:51.055Z,86.07
2022-08-01T22:00:42.812Z,86.26
2022-08-01T22:03:54.512Z,85.76
2022-08-01T22:06:47.446Z,86.22
2022-08-01T22:09:42.370Z,86.28
2022-08-01T22:12:37.392Z,86.51
2022-08-01T22:15:45.084Z,86.49
2022-08-01T22:18:36.026Z,86.20
2022-08-01T22:21:25.573Z,86.72
2022-08-01T22:24:15.800Z,86.56
2022-08-01T22:27:06.045Z,86.76
2022-08-01T22:30:01.110Z,85.96
2022-08-01T22:33:07.390Z,86.52
2022-08-01T22:36:02.197Z,86.85
2022-08-01T22:38:52.565Z,86.44
2022-08-01T22:42:01.355Z,86.29
2022-08-01T22:45:23.068Z,85.45
2022-08-01T22:48:31.480Z,86.04
2022-08-01T22:51:34.429Z,86.92
2022-08-01T22:54:28.771Z,86.52
2022-08-01T22:57:25.273Z,85.76
2022-08-01T23:00:16.872Z,85.95
2022-08-01T23:03:32.438Z,85.18
2022-08-01T23:06:33.352Z,85.50
2022-08-01T23:09:24.059Z,85.15
2022-08-01T23:12:33.759Z,84.37
2022-08-01T23:15:26.911Z,84.29
2022-08-01T23:18:18.411Z,84.81
2022-08-01T23:21:13.551Z,84.22
2022-08-01T23:24:03.661Z,84.39
2022-08-01T23:26:53.254Z,84.17
2022-08-01T23:29:43.503Z,83.44
2022-08-01T23:32:32.871Z,83.76
2022-08-01T23:35:23.250Z,83.94
2022-08-01T23:38:13.476Z,82.38
2022-08-01T23:41:04.118Z,83.43
2022-08-01T23:43:54.167Z,83.12
2022-08-01T23:46:44.818Z,83.23
2022-08-01T23:49:34.433Z,82.31
2022-08-01T23:52:48.488Z,81.04
2022-08-01T23:55:50.308Z,80.14
2022-08-01T23:58:43.852Z,80.63
